createdAt,value
2022-12-26T00:01:06.923Z,97887.00
2022-12-26T00:03:34.775Z,97898.00
2022-12-26T00:06:03.999Z,97897.00
2022-12-26T00:08:31.906Z,97909.00
2022-12-26T00:10:59.498Z,97911.00
2022-12-26T00:13:39.837Z,97919.00
2022-12-26T00:16:09.803Z,97912.00
2022-12-26T00:18:37.784Z,97907.00
2022-12-26T00:21:07.773Z,97910.00
2022-12-26T00:23:36.429Z,97909.00
2022-12-26T00:26:05.173Z,97910.00
2022-12-26T00:28:32.960Z,97911.00
2022-12-26T00:31:04.641Z,97902.00
2022-12-26T00:33:32.277Z,97900.00
2022-12-26T00:36:03.231Z,97907.00
2022-12-26T00:38:32.565Z,97919.00
2022-12-26T00:41:00.181Z,97915.00
2022-12-26T00:43:28.108Z,97909.00
2022-12-26T00:45:55.726Z,97913.00
2022-12-26T00:48:23.904Z,97908.00
2022-12-26T00:50:51.645Z,97918.00
2022-12-26T00:53:19.350Z,97917.00
2022-12-26T00:55:48.731Z,97913.00
2022-12-26T00:58:16.512Z,97909.00
2022-12-26T01:00:44.210Z,97912.00
2022-12-26T01:03:12.896Z,97921.00
2022-12-26T01:05:42.848Z,97915.00
2022-12-26T01:08:22.617Z,97926.00
2022-12-26T01:10:54.220Z,97925.00
2022-12-26T01:13:21.906Z,97925.00
2022-12-26T01:15:50.817Z,97927.00
2022-12-26T01:18:18.876Z,97922.00
2022-12-26T01:20:46.633Z,97927.00
2022-12-26T01:23:14.387Z,97930.00
2022-12-26T01:26:16.529Z,97924.00
2022-12-26T01:28:31.333Z,97914.00
2022-12-26T01:31:03.443Z,97917.00
2022-12-26T01:33:31.249Z,97917.00
2022-12-26T01:35:59.150Z,97911.00
2022-12-26T01:38:26.836Z,97912.00
2022-12-26T01:41:14.713Z,97901.00
2022-12-26T01:43:59.075Z,97901.00
2022-12-26T01:46:33.343Z,97906.00
2022-12-26T01:49:07.450Z,97915.00
2022-12-26T01:51:39.452Z,97917.00
2022-12-26T01:54:38.470Z,97910.00
2022-12-26T01:56:58.847Z,97919.00
2022-12-26T01:59:31.777Z,97912.00
2022-12-26T02:02:00.829Z,97914.00
2022-12-26T02:04:49.829Z,97922.00
2022-12-26T02:07:17.579Z,97901.00
2022-12-26T02:09:45.332Z,97905.00
2022-12-26T02:12:37.317Z,97908.00
2022-12-26T02:15:09.761Z,97899.00
2022-12-26T02:17:38.547Z,97903.00
2022-12-26T02:20:16.631Z,97901.00
2022-12-26T02:23:17.731Z,97911.00
2022-12-26T02:26:12.922Z,97922.00
2022-12-26T02:29:11.228Z,97915.00
2022-12-26T02:31:49.359Z,97908.00
2022-12-26T02:34:21.948Z,97904.00
2022-12-26T02:37:09.087Z,97896.00
2022-12-26T02:39:54.802Z,97890.00
2022-12-26T02:42:34.485Z,97888.00
2022-12-26T02:45:26.341Z,97894.00
2022-12-26T02:48:00.959Z,97894.00
2022-12-26T02:50:56.358Z,97902.00
2022-12-26T02:53:52.288Z,97908.00
2022-12-26T02:56:42.630Z,97903.00
2022-12-26T02:59:53.824Z,97915.00
2022-12-26T03:02:44.774Z,97912.00
2022-12-26T03:05:37.277Z,97901.00
2022-12-26T03:08:25.363Z,97902.00
2022-12-26T03:11:12.985Z,97910.00
2022-12-26T03:13:43.004Z,97909.00
2022-12-26T03:16:30.291Z,97911.00
2022-12-26T03:19:03.215Z,97892.00
2022-12-26T03:21:35.994Z,97891.00
2022-12-26T03:24:03.682Z,97896.00
2022-12-26T03:26:39.606Z,97896.00
2022-12-26T03:29:27.349Z,97906.00
2022-12-26T03:31:55.481Z,97912.00
2022-12-26T03:34:23.756Z,97911.00
2022-12-26T03:37:03.575Z,97919.00
2022-12-26T03:39:58.603Z,97916.00
2022-12-26T03:43:02.350Z,97909.00
2022-12-26T03:46:10.765Z,97905.00
2022-12-26T03:49:10.436Z,97915.00
2022-12-26T03:52:03.028Z,97915.00
2022-12-26T03:54:54.175Z,97908.00
2022-12-26T03:57:44.418Z,97909.00
2022-12-26T04:00:33.060Z,97899.00
2022-12-26T04:03:25.049Z,97906.00
2022-12-26T04:06:12.088Z,97920.00
2022-12-26T04:09:06.599Z,97923.00
2022-12-26T04:11:55.597Z,97918.00
2022-12-26T04:14:54.368Z,97913.00
2022-12-26T04:17:47.867Z,97910.00
2022-12-26T04:20:21.314Z,97912.00
2022-12-26T04:23:12.826Z,97918.00
2022-12-26T04:26:05.139Z,97915.00
2022-12-26T04:28:51.652Z,97903.00
2022-12-26T04:31:44.131Z,97900.00
2022-12-26T04:34:39.233Z,97899.00
2022-12-26T04:37:32.981Z,97897.00
2022-12-26T04:40:22.030Z,97900.00
2022-12-26T04:43:46.769Z,97903.00
2022-12-26T04:46:00.289Z,97910.00
2022-12-26T04:48:46.333Z,97907.00
2022-12-26T04:51:15.197Z,97919.00
2022-12-26T04:53:46.282Z,97927.00
2022-12-26T04:56:17.406Z,97918.00
2022-12-26T04:58:46.258Z,97923.00
2022-12-26T05:01:33.450Z,97928.00
2022-12-26T05:04:18.619Z,97923.00
2022-12-26T05:07:03.881Z,97920.00
2022-12-26T05:09:39.592Z,97913.00
2022-12-26T05:12:09.240Z,97915.00
2022-12-26T05:14:37.158Z,97910.00
2022-12-26T05:17:25.416Z,97921.00
2022-12-26T05:20:11.226Z,97921.00
2022-12-26T05:22:59.180Z,97910.00
2022-12-26T05:25:47.267Z,97922.00
2022-12-26T05:28:34.394Z,97924.00
2022-12-26T05:31:02.945Z,97927.00
2022-12-26T05:33:49.600Z,97917.00
2022-12-26T05:36:20.568Z,97915.00
2022-12-26T05:38:49.060Z,97916.00
2022-12-26T05:41:17.163Z,97906.00
2022-12-26T05:43:44.832Z,97905.00
2022-12-26T05:46:12.688Z,97901.00
2022-12-26T05:48:41.727Z,97897.00
2022-12-26T05:51:09.365Z,97908.00
2022-12-26T05:53:37.117Z,97895.00
2022-12-26T05:56:05.776Z,97898.00
2022-12-26T05:58:34.178Z,97896.00
2022-12-26T06:01:06.472Z,97889.00
2022-12-26T06:03:34.242Z,97895.00
2022-12-26T06:06:03.697Z,97891.00
2022-12-26T06:08:31.369Z,97891.00
2022-12-26T06:10:59.077Z,97898.00
2022-12-26T06:13:26.686Z,97904.00
2022-12-26T06:15:54.348Z,97892.00
2022-12-26T06:18:21.970Z,97894.00
2022-12-26T06:20:49.573Z,97893.00
2022-12-26T06:23:18.540Z,97891.00
2022-12-26T06:25:46.160Z,97877.00
2022-12-26T06:28:13.758Z,97874.00
2022-12-26T06:30:41.399Z,97868.00
2022-12-26T06:33:09.059Z,97858.00
2022-12-26T06:35:36.711Z,97870.00
2022-12-26T06:38:04.383Z,97876.00
2022-12-26T06:40:33.387Z,97880.00
2022-12-26T06:43:01.075Z,97886.00
2022-12-26T06:45:28.683Z,97890.00
2022-12-26T06:47:56.310Z,97905.00
2022-12-26T06:50:23.925Z,97896.00
2022-12-26T06:52:51.546Z,97895.00
2022-12-26T06:55:19.173Z,97901.00
2022-12-26T06:57:48.159Z,97890.00
2022-12-26T07:00:16.833Z,97891.00
2022-12-26T07:02:44.719Z,97880.00
2022-12-26T07:05:12.415Z,97891.00
2022-12-26T07:07:40.007Z,97889.00
2022-12-26T07:10:08.379Z,97892.00
2022-12-26T07:12:36.145Z,97899.00
2022-12-26T07:15:05.818Z,97899.00
2022-12-26T07:17:33.446Z,97907.00
2022-12-26T07:20:01.021Z,97904.00
2022-12-26T07:22:29.531Z,97911.00
2022-12-26T07:24:57.163Z,97911.00
2022-12-26T07:27:24.915Z,97917.00
2022-12-26T07:29:52.559Z,97917.00
2022-12-26T07:32:21.548Z,97914.00
2022-12-26T07:34:49.195Z,97911.00
2022-12-26T07:37:16.805Z,97916.00
2022-12-26T07:39:44.433Z,97916.00
2022-12-26T07:42:12.088Z,97915.00
2022-12-26T07:44:39.744Z,97926.00
2022-12-26T07:47:07.369Z,97926.00
2022-12-26T07:49:36.303Z,97934.00
2022-12-26T07:52:04.196Z,97941.00
2022-12-26T07:54:32.301Z,97946.00
2022-12-26T07:57:21.770Z,97942.00
2022-12-26T07:59:49.129Z,97941.00
2022-12-26T08:02:20.011Z,97938.00
2022-12-26T08:04:49.190Z,97945.00
2022-12-26T08:07:16.858Z,97939.00
2022-12-26T08:09:45.124Z,97940.00
2022-12-26T08:12:13.107Z,97944.00
2022-12-26T08:14:41.062Z,97945.00
2022-12-26T08:17:11.174Z,97948.00
2022-12-26T08:19:38.853Z,97955.00
2022-12-26T08:22:07.816Z,97953.00
2022-12-26T08:24:35.547Z,97965.00
2022-12-26T08:27:03.149Z,97956.00
2022-12-26T08:29:30.893Z,97951.00
2022-12-26T08:31:58.477Z,97958.00
2022-12-26T08:34:26.083Z,97958.00
2022-12-26T08:36:55.429Z,97952.00
2022-12-26T08:39:24.676Z,97953.00
2022-12-26T08:41:52.296Z,97960.00
2022-12-26T08:44:28.306Z,97963.00
2022-12-26T08:46:56.390Z,97977.00
2022-12-26T08:49:25.051Z,97979.00
2022-12-26T08:51:52.949Z,97985.00
2022-12-26T08:54:20.763Z,97990.00
2022-12-26T08:56:49.925Z,97989.00
2022-12-26T08:59:17.590Z,97987.00
2022-12-26T09:01:45.643Z,97985.00
2022-12-26T09:04:13.427Z,97980.00
2022-12-26T09:06:41.828Z,97987.00
2022-12-26T09:09:12.730Z,97986.00
2022-12-26T09:11:41.512Z,97979.00
2022-12-26T09:14:11.250Z,97974.00
2022-12-26T09:16:49.287Z,97965.00
2022-12-26T09:19:18.702Z,97968.00
2022-12-26T09:21:47.303Z,97968.00
2022-12-26T09:24:16.642Z,97972.00
2022-12-26T09:26:45.188Z,97971.00
2022-12-26T09:29:14.741Z,97986.00
2022-12-26T09:31:42.400Z,97986.00
2022-12-26T09:34:10.026Z,97987.00
2022-12-26T09:36:39.630Z,97986.00
2022-12-26T09:39:08.107Z,97988.00
2022-12-26T09:41:52.223Z,97987.00
2022-12-26T09:44:25.487Z,97991.00
2022-12-26T09:47:02.236Z,97995.00
2022-12-26T09:49:33.252Z,98010.00
2022-12-26T09:52:03.212Z,97999.00
2022-12-26T09:54:34.830Z,97998.00
2022-12-26T09:57:11.429Z,97997.00
2022-12-26T09:59:49.552Z,97998.00
2022-12-26T10:02:20.104Z,98003.00
2022-12-26T10:05:07.780Z,98010.00
2022-12-26T10:07:56.018Z,98014.00
2022-12-26T10:11:01.980Z,98002.00
2022-12-26T10:13:59.328Z,98010.00
2022-12-26T10:17:11.623Z,98021.00
2022-12-26T10:20:07.934Z,98025.00
2022-12-26T10:23:24.652Z,98031.00
2022-12-26T10:26:17.959Z,98038.00
2022-12-26T10:29:10.283Z,98052.00
2022-12-26T10:32:01.497Z,98046.00
2022-12-26T10:34:53.113Z,98058.00
2022-12-26T10:37:41.524Z,98068.00
2022-12-26T10:40:47.122Z,98067.00
2022-12-26T10:43:33.878Z,98074.00
2022-12-26T10:46:49.101Z,98074.00
2022-12-26T10:49:44.167Z,98072.00
2022-12-26T10:52:43.635Z,98076.00
2022-12-26T10:55:35.338Z,98086.00
2022-12-26T10:58:25.684Z,98089.00
2022-12-26T11:01:33.051Z,98079.00
2022-12-26T11:07:31.835Z,98083.00
2022-12-26T11:10:00.261Z,98070.00
2022-12-26T11:12:35.084Z,98079.00
2022-12-26T11:15:05.918Z,98080.00
2022-12-26T11:17:45.152Z,98067.00
2022-12-26T11:20:31.277Z,98060.00
2022-12-26T11:23:27.985Z,98062.00
2022-12-26T11:25:57.103Z,98064.00
2022-12-26T11:28:32.106Z,98060.00
2022-12-26T11:31:01.452Z,98055.00
2022-12-26T11:33:32.431Z,98048.00
2022-12-26T11:36:08.812Z,98037.00
2022-12-26T11:38:47.864Z,98045.00
2022-12-26T11:41:36.373Z,98050.00
2022-12-26T11:44:15.512Z,98051.00
2022-12-26T11:46:45.679Z,98051.00
2022-12-26T11:49:20.450Z,98050.00
2022-12-26T11:51:55.645Z,98051.00
2022-12-26T11:54:30.099Z,98043.00
2022-12-26T11:57:13.273Z,98050.00
2022-12-26T12:00:19.366Z,98044.00
2022-12-26T12:02:47.300Z,98044.00
2022-12-26T12:05:17.402Z,98047.00
2022-12-26T12:07:57.913Z,98052.00
2022-12-26T12:10:55.414Z,98054.00
2022-12-26T12:13:38.757Z,98062.00
2022-12-26T12:16:25.289Z,98044.00
2022-12-26T12:19:00.853Z,98041.00
2022-12-26T12:21:37.957Z,98023.00
2022-12-26T12:24:28.765Z,98025.00
2022-12-26T12:27:07.010Z,98031.00
2022-12-26T12:29:47.893Z,98014.00
2022-12-26T12:32:23.871Z,98026.00
2022-12-26T12:35:07.436Z,98033.00
2022-12-26T12:37:44.107Z,98022.00
2022-12-26T12:40:37.514Z,98032.00
2022-12-26T12:43:14.803Z,98030.00
2022-12-26T12:45:57.208Z,98033.00
2022-12-26T12:48:37.206Z,98045.00
2022-12-26T12:51:13.983Z,98051.00
2022-12-26T12:54:05.483Z,98047.00
2022-12-26T12:56:42.770Z,98043.00
2022-12-26T12:59:22.568Z,98038.00
2022-12-26T13:01:53.464Z,98045.00
2022-12-26T13:04:27.819Z,98033.00
2022-12-26T13:07:00.676Z,98025.00
2022-12-26T13:09:34.483Z,98023.00
2022-12-26T13:12:05.789Z,98022.00
2022-12-26T13:14:38.403Z,98011.00
2022-12-26T13:17:10.985Z,98009.00
2022-12-26T13:19:48.684Z,98012.00
2022-12-26T13:22:24.828Z,98003.00
2022-12-26T13:24:58.064Z,98014.00
2022-12-26T13:27:31.804Z,98013.00
2022-12-26T13:30:27.054Z,98028.00
2022-12-26T13:33:00.617Z,98035.00
2022-12-26T13:36:02.314Z,98043.00
2022-12-26T13:39:21.013Z,98038.00
2022-12-26T13:42:19.447Z,98047.00
2022-12-26T13:45:06.718Z,98048.00
2022-12-26T13:47:52.315Z,98043.00
2022-12-26T13:50:59.568Z,98038.00
2022-12-26T13:53:52.521Z,98037.00
2022-12-26T13:57:06.084Z,98040.00
2022-12-26T14:00:08.268Z,98038.00
2022-12-26T14:03:30.857Z,98037.00
2022-12-26T14:06:38.486Z,98033.00
2022-12-26T14:09:42.107Z,98041.00
2022-12-26T14:12:37.995Z,98041.00
2022-12-26T14:15:31.214Z,98034.00
2022-12-26T14:18:33.375Z,98032.00
2022-12-26T14:21:39.724Z,98035.00
2022-12-26T14:24:40.700Z,98051.00
2022-12-26T14:27:33.227Z,98037.00
2022-12-26T14:30:40.045Z,98042.00
2022-12-26T14:33:43.426Z,98049.00
2022-12-26T14:36:34.743Z,98045.00
2022-12-26T14:39:51.646Z,98050.00
2022-12-26T14:42:49.240Z,98041.00
2022-12-26T14:45:56.152Z,98044.00
2022-12-26T14:49:08.688Z,98042.00
2022-12-26T14:51:55.076Z,98047.00
2022-12-26T14:54:54.953Z,98040.00
2022-12-26T14:57:53.875Z,98045.00
2022-12-26T15:00:46.482Z,98040.00
2022-12-26T15:03:58.123Z,98044.00
2022-12-26T15:07:02.355Z,98029.00
2022-12-26T15:10:24.337Z,98030.00
2022-12-26T15:13:23.297Z,98044.00
2022-12-26T15:16:28.653Z,98031.00
2022-12-26T15:19:50.596Z,98030.00
2022-12-26T15:23:16.467Z,98035.00
2022-12-26T15:26:21.873Z,98038.00
2022-12-26T15:29:33.288Z,98031.00
2022-12-26T15:32:35.921Z,98042.00
2022-12-26T15:35:32.915Z,98047.00
2022-12-26T15:38:35.158Z,98041.00
2022-12-26T15:41:36.566Z,98036.00
2022-12-26T15:44:39.807Z,98038.00
2022-12-26T15:47:19.236Z,98029.00
2022-12-26T15:50:04.780Z,98033.00
2022-12-26T15:52:44.831Z,98036.00
2022-12-26T15:55:42.040Z,98044.00
2022-12-26T15:58:22.580Z,98044.00
2022-12-26T16:00:52.169Z,98049.00
2022-12-26T16:03:33.845Z,98045.00
2022-12-26T16:06:16.307Z,98051.00
2022-12-26T16:08:55.376Z,98051.00
2022-12-26T16:11:26.253Z,98046.00
2022-12-26T16:14:00.116Z,98035.00
2022-12-26T16:16:33.652Z,98035.00
2022-12-26T16:19:16.556Z,98025.00
2022-12-26T16:22:05.910Z,98029.00
2022-12-26T16:24:35.575Z,98042.00
2022-12-26T16:27:07.988Z,98046.00
2022-12-26T16:29:42.197Z,98046.00
2022-12-26T16:32:16.103Z,98044.00
2022-12-26T16:34:44.650Z,98051.00
2022-12-26T16:37:20.588Z,98053.00
2022-12-26T16:40:07.797Z,98065.00
2022-12-26T16:42:37.787Z,98049.00
2022-12-26T16:45:08.296Z,98046.00
2022-12-26T16:47:37.066Z,98050.00
2022-12-26T16:50:06.210Z,98045.00
2022-12-26T16:52:43.662Z,98044.00
2022-12-26T16:55:35.390Z,98051.00
2022-12-26T16:58:21.708Z,98045.00
2022-12-26T17:01:04.064Z,98042.00
2022-12-26T17:03:45.281Z,98034.00
2022-12-26T17:06:20.564Z,98038.00
2022-12-26T17:08:51.274Z,98029.00
2022-12-26T17:11:27.932Z,98042.00
2022-12-26T17:13:57.957Z,98028.00
2022-12-26T17:16:28.240Z,98021.00
2022-12-26T17:18:57.107Z,98015.00
2022-12-26T17:21:30.226Z,98025.00
2022-12-26T17:24:20.455Z,98024.00
2022-12-26T17:26:52.818Z,98018.00
2022-12-26T17:29:46.624Z,98028.00
2022-12-26T17:32:16.751Z,98030.00
2022-12-26T17:34:44.981Z,98012.00
2022-12-26T17:37:20.994Z,98006.00
2022-12-26T17:40:05.203Z,98013.00
2022-12-26T17:42:54.455Z,98006.00
2022-12-26T17:45:46.346Z,98006.00
2022-12-26T17:48:29.499Z,98014.00
2022-12-26T17:51:11.745Z,98016.00
2022-12-26T17:53:53.740Z,98013.00
2022-12-26T17:56:31.199Z,98025.00
2022-12-26T17:59:05.692Z,98028.00
2022-12-26T18:01:50.140Z,98035.00
2022-12-26T18:04:24.736Z,98046.00
2022-12-26T18:06:59.356Z,98044.00
2022-12-26T18:09:42.117Z,98042.00
2022-12-26T18:12:20.730Z,98039.00
2022-12-26T18:15:03.095Z,98043.00
2022-12-26T18:17:47.034Z,98046.00
2022-12-26T18:20:26.264Z,98046.00
2022-12-26T18:23:03.993Z,98047.00
2022-12-26T18:25:48.142Z,98051.00
2022-12-26T18:28:27.688Z,98047.00
2022-12-26T18:31:08.038Z,98043.00
2022-12-26T18:33:50.859Z,98045.00
2022-12-26T18:36:33.999Z,98044.00
2022-12-26T18:39:11.584Z,98045.00
2022-12-26T18:41:57.922Z,98054.00
2022-12-26T18:44:36.897Z,98049.00
2022-12-26T18:47:14.392Z,98036.00
2022-12-26T18:49:55.646Z,98034.00
2022-12-26T18:52:27.700Z,98041.00
2022-12-26T18:55:08.599Z,98049.00
2022-12-26T18:57:50.245Z,98063.00
2022-12-26T19:00:21.585Z,98063.00
2022-12-26T19:02:55.726Z,98073.00
2022-12-26T19:05:28.161Z,98088.00
2022-12-26T19:07:57.480Z,98099.00
2022-12-26T19:10:40.923Z,98090.00
2022-12-26T19:13:27.413Z,98124.00
2022-12-26T19:16:14.512Z,98128.00
2022-12-26T19:19:03.785Z,98143.00
2022-12-26T19:21:52.328Z,98138.00
2022-12-26T19:24:38.880Z,98141.00
2022-12-26T19:27:29.313Z,98152.00
2022-12-26T19:30:24.659Z,98140.00
2022-12-26T19:33:16.544Z,98149.00
2022-12-26T19:36:13.249Z,98156.00
2022-12-26T19:39:11.644Z,98170.00
2022-12-26T19:41:51.735Z,98167.00
2022-12-26T19:44:49.103Z,98174.00
2022-12-26T19:47:39.502Z,98184.00
2022-12-26T19:50:32.422Z,98190.00
2022-12-26T19:53:00.095Z,98195.00
2022-12-26T19:55:29.186Z,98192.00
2022-12-26T19:57:56.792Z,98189.00
2022-12-26T20:00:24.449Z,98200.00
2022-12-26T20:02:52.152Z,98201.00
2022-12-26T20:05:19.837Z,98205.00
2022-12-26T20:07:47.446Z,98201.00
2022-12-26T20:10:15.121Z,98195.00
2022-12-26T20:12:44.099Z,98201.00
2022-12-26T20:15:12.010Z,98198.00
2022-12-26T20:17:39.870Z,98198.00
2022-12-26T20:20:08.291Z,98203.00
2022-12-26T20:22:35.937Z,98207.00
2022-12-26T20:25:04.134Z,98197.00
2022-12-26T20:27:32.702Z,98176.00
2022-12-26T20:30:01.689Z,98175.00
2022-12-26T20:32:29.365Z,98191.00
2022-12-26T20:34:57.030Z,98192.00
2022-12-26T20:37:24.677Z,98188.00
2022-12-26T20:39:52.642Z,98210.00
2022-12-26T20:42:20.285Z,98220.00
2022-12-26T20:44:47.919Z,98222.00
2022-12-26T20:47:17.439Z,98229.00
2022-12-26T20:49:45.068Z,98229.00
2022-12-26T20:52:12.707Z,98238.00
2022-12-26T20:54:40.372Z,98234.00
2022-12-26T20:57:08.001Z,98239.00
2022-12-26T20:59:35.609Z,98236.00
2022-12-26T21:02:03.540Z,98231.00
2022-12-26T21:04:33.119Z,98237.00
2022-12-26T21:07:00.790Z,98249.00
2022-12-26T21:09:28.400Z,98260.00
2022-12-26T21:11:56.109Z,98261.00
2022-12-26T21:14:24.090Z,98262.00
2022-12-26T21:16:54.110Z,98281.00
2022-12-26T21:19:22.759Z,98282.00
2022-12-26T21:21:54.517Z,98289.00
2022-12-26T21:24:24.237Z,98295.00
2022-12-26T21:26:52.642Z,98296.00
2022-12-26T21:29:22.353Z,98288.00
2022-12-26T21:31:50.749Z,98297.00
2022-12-26T21:34:20.081Z,98308.00
2022-12-26T21:37:08.162Z,98315.00
2022-12-26T21:39:38.704Z,98322.00
2022-12-26T21:42:08.074Z,98326.00
2022-12-26T21:44:36.748Z,98334.00
2022-12-26T21:47:05.204Z,98328.00
2022-12-26T21:49:32.872Z,98335.00
2022-12-26T21:52:00.550Z,98342.00
2022-12-26T21:54:49.032Z,98344.00
2022-12-26T21:57:18.986Z,98334.00
2022-12-26T21:59:59.690Z,98345.00
2022-12-26T22:02:58.622Z,98339.00
2022-12-26T22:05:46.807Z,98346.00
2022-12-26T22:08:37.719Z,98351.00
2022-12-26T22:11:39.250Z,98349.00
2022-12-26T22:14:25.059Z,98348.00
2022-12-26T22:17:13.621Z,98345.00
2022-12-26T22:19:55.948Z,98348.00
2022-12-26T22:22:34.519Z,98355.00
2022-12-26T22:25:03.219Z,98351.00
2022-12-26T22:27:31.295Z,98354.00
2022-12-26T22:30:17.240Z,98358.00
2022-12-26T22:33:01.239Z,98355.00
2022-12-26T22:35:36.663Z,98362.00
2022-12-26T22:38:11.961Z,98376.00
2022-12-26T22:41:00.367Z,98376.00
2022-12-26T22:43:36.710Z,98379.00
2022-12-26T22:46:08.223Z,98382.00
2022-12-26T22:48:46.834Z,98393.00
2022-12-26T22:51:26.142Z,98400.00
2022-12-26T22:53:56.608Z,98398.00
2022-12-26T22:56:24.546Z,98415.00
2022-12-26T22:58:54.004Z,98409.00
2022-12-26T23:01:23.835Z,98414.00
2022-12-26T23:03:51.598Z,98417.00
2022-12-26T23:06:21.293Z,98428.00
2022-12-26T23:08:49.442Z,98422.00
2022-12-26T23:11:17.695Z,98442.00
2022-12-26T23:13:46.505Z,98440.00
2022-12-26T23:16:29.420Z,98456.00
2022-12-26T23:19:19.266Z,98470.00
2022-12-26T23:21:49.326Z,98486.00
2022-12-26T23:24:19.254Z,98498.00
2022-12-26T23:26:49.860Z,98508.00
2022-12-26T23:29:37.030Z,98526.00
2022-12-26T23:32:05.317Z,98536.00
2022-12-26T23:34:34.507Z,98550.00
2022-12-26T23:37:02.578Z,98537.00
2022-12-26T23:39:30.562Z,98543.00
2022-12-26T23:41:58.522Z,98541.00
2022-12-26T23:44:26.154Z,98556.00
2022-12-26T23:46:53.809Z,98545.00
2022-12-26T23:49:21.453Z,98559.00
2022-12-26T23:51:50.428Z,98553.00
2022-12-26T23:54:18.149Z,98551.00
2022-12-26T23:56:45.839Z,98550.00
2022-12-26T23:59:13.473Z,98567.00
